createdAt,value
2019-04-23T04:40:29.030Z,5.22
2019-04-23T04:47:47.987Z,4.67
2019-04-23T04:50:26.273Z,5.00
2019-04-23T04:57:58.662Z,4.73
2019-04-23T05:00:43.150Z,5.87
2019-04-23T05:06:01.459Z,5.23
2019-04-23T05:10:51.642Z,5.10
2019-04-23T05:20:53.207Z,5.33
2019-04-23T05:23:27.001Z,5.00
2019-04-23T05:25:49.745Z,5.03
2019-04-23T05:28:39.736Z,5.65
2019-04-23T05:33:24.783Z,5.28
2019-04-23T05:38:37.415Z,5.17
2019-04-23T05:41:03.760Z,5.03
2019-04-23T05:43:34.288Z,5.22
2019-04-23T05:46:07.275Z,4.92
2019-04-23T05:48:34.702Z,4.93
2019-04-23T05:51:16.255Z,5.28
2019-04-23T05:53:50.939Z,5.22
2019-04-23T05:58:37.193Z,6.50
2019-04-23T06:01:37.936Z,5.28
2019-04-23T06:03:56.721Z,5.08
2019-04-23T06:06:29.804Z,5.35
2019-04-23T06:08:56.386Z,4.90
2019-04-23T06:11:28.478Z,5.15
2019-04-23T06:14:02.024Z,4.70
2019-04-23T06:16:31.406Z,4.37
2019-04-23T06:19:02.756Z,5.10
2019-04-23T06:21:33.990Z,5.30
2019-04-23T06:24:09.820Z,4.55
2019-04-23T06:26:42.966Z,4.58
2019-04-23T06:29:10.299Z,4.90
2019-04-23T06:31:38.026Z,4.62
2019-04-23T06:34:12.380Z,4.62
2019-04-23T06:36:37.079Z,4.90
2019-04-23T06:39:02.933Z,5.15
2019-04-23T06:49:23.689Z,4.30
2019-04-23T06:52:05.944Z,4.70
2019-04-23T06:54:24.440Z,4.37
2019-04-23T06:59:24.588Z,4.30
2019-04-23T07:04:39.317Z,4.15
2019-04-23T07:07:25.683Z,3.47
2019-04-23T07:09:26.299Z,4.13
2019-04-23T07:12:07.670Z,3.83
2019-04-23T07:14:47.742Z,4.15
2019-04-23T07:17:02.664Z,3.73
2019-04-23T07:22:06.640Z,4.47
2019-04-23T07:24:32.867Z,3.67
2019-04-23T07:27:06.963Z,3.90
2019-04-23T07:29:58.111Z,3.60
2019-04-23T07:32:15.137Z,3.55
2019-04-23T07:35:01.047Z,4.03
2019-04-23T07:42:55.158Z,4.00
2019-04-23T07:50:49.429Z,3.85
2019-04-23T07:53:23.380Z,3.70
2019-04-23T07:55:56.831Z,3.90
2019-04-23T08:01:03.641Z,4.83
2019-04-23T08:03:22.784Z,3.85
2019-04-23T08:06:07.247Z,4.12
2019-04-23T08:08:24.584Z,4.42
2019-04-23T08:21:18.157Z,5.05
2019-04-23T08:26:59.100Z,4.78
2019-04-23T08:29:30.910Z,4.45
2019-04-23T08:32:12.054Z,5.00
2019-04-23T08:39:43.177Z,5.17
2019-04-23T08:45:22.701Z,4.45
2019-04-23T08:50:46.603Z,4.70
2019-04-23T08:55:50.054Z,4.47
2019-04-23T08:58:27.372Z,4.57
2019-04-23T09:06:00.673Z,5.05
2019-04-23T09:11:04.654Z,4.17
2019-04-23T09:16:15.275Z,4.90
2019-04-23T09:18:33.112Z,4.70
2019-04-23T09:21:03.602Z,5.37
2019-04-23T09:23:42.078Z,5.35
2019-04-23T09:26:02.213Z,5.42
2019-04-23T09:28:53.231Z,4.97
2019-04-23T09:31:24.959Z,4.97
2019-04-23T09:36:40.590Z,4.12
2019-04-23T09:39:32.990Z,4.60
2019-04-23T09:42:12.079Z,4.40
2019-04-23T09:44:58.555Z,5.00
2019-04-23T09:47:48.855Z,4.90
2019-04-23T09:50:15.624Z,4.97
2019-04-23T09:52:48.834Z,4.80
2019-04-23T09:55:22.136Z,5.45
2019-04-23T09:57:51.540Z,5.40
2019-04-23T10:00:25.459Z,4.67
2019-04-23T10:02:34.312Z,4.40
2019-04-23T10:05:06.046Z,4.80
2019-04-23T10:07:34.831Z,5.83
2019-04-23T10:09:55.411Z,5.27
2019-04-23T10:12:26.265Z,4.53
2019-04-23T10:15:05.442Z,5.08
2019-04-23T10:17:28.376Z,4.93
2019-04-23T10:19:58.308Z,5.77
2019-04-23T10:22:29.481Z,5.53
2019-04-23T10:24:59.439Z,5.60
2019-04-23T10:27:29.470Z,5.28
2019-04-23T10:29:59.787Z,4.80
2019-04-23T10:32:29.833Z,5.83
2019-04-23T10:35:10.399Z,5.20
2019-04-23T10:37:40.285Z,6.10
2019-04-23T10:40:05.726Z,5.37
2019-04-23T10:42:35.973Z,6.28
2019-04-23T10:45:31.170Z,6.05
2019-04-23T10:48:41.498Z,5.58
2019-04-23T10:51:04.465Z,5.87
2019-04-23T10:53:42.826Z,6.50
2019-04-23T10:56:21.242Z,6.05
2019-04-23T10:58:41.104Z,6.10
2019-04-23T11:01:16.372Z,6.67
2019-04-23T11:04:02.295Z,5.80
2019-04-23T11:06:16.569Z,5.75
2019-04-23T11:08:55.920Z,6.00
2019-04-23T11:11:21.900Z,6.85
2019-04-23T11:13:53.081Z,6.42
2019-04-23T11:16:45.898Z,6.50
2019-04-23T11:21:27.661Z,6.37
2019-04-23T11:24:01.079Z,6.17
2019-04-23T11:29:06.983Z,6.85
2019-04-23T11:31:39.260Z,6.47
2019-04-23T11:39:21.671Z,6.42
2019-04-23T11:41:47.134Z,6.83
2019-04-23T11:44:20.673Z,6.92
2019-04-23T11:46:57.439Z,5.67
2019-04-23T11:54:17.259Z,7.35
2019-04-23T11:57:14.372Z,6.65
2019-04-23T11:59:29.329Z,5.97
2019-04-23T12:01:56.507Z,6.75
2019-04-23T12:05:17.146Z,6.55
2019-04-23T12:07:49.904Z,7.03
2019-04-23T12:10:39.125Z,7.00
2019-04-23T12:13:07.510Z,6.80
2019-04-23T12:18:10.982Z,6.05
2019-04-23T12:23:38.208Z,6.83
2019-04-23T12:28:18.021Z,6.40
2019-04-23T12:30:48.675Z,7.00
2019-04-23T12:33:22.142Z,6.97
2019-04-23T12:35:47.161Z,6.90
2019-04-23T12:38:21.914Z,6.78
2019-04-23T12:40:51.392Z,7.05
2019-04-23T12:43:18.918Z,7.30
2019-04-23T12:45:47.046Z,6.20
2019-04-23T12:48:36.526Z,6.97
2019-04-23T12:51:09.311Z,7.57
2019-04-23T12:56:06.993Z,6.97
2019-04-23T12:58:27.019Z,6.40
2019-04-23T13:01:03.953Z,5.35
2019-04-23T13:03:31.429Z,6.53
2019-04-23T13:05:53.042Z,5.75
2019-04-23T13:08:41.368Z,5.70
2019-04-23T13:11:06.882Z,5.90
2019-04-23T13:13:37.762Z,5.90
2019-04-23T13:16:12.385Z,5.37
2019-04-23T13:18:39.494Z,5.58
2019-04-23T13:21:21.797Z,5.40
2019-04-23T13:23:39.177Z,5.28
2019-04-23T13:26:16.054Z,6.13
2019-04-23T13:28:47.000Z,6.20
2019-04-23T13:31:15.035Z,6.03
2019-04-23T13:34:04.320Z,5.87
2019-04-23T13:36:32.817Z,6.20
2019-04-23T13:38:56.725Z,6.00
2019-04-23T13:44:08.787Z,6.42
2019-04-23T13:46:20.024Z,6.17
2019-04-23T13:48:58.343Z,6.30
2019-04-23T13:54:09.731Z,6.60
2019-04-23T13:59:18.159Z,5.90
2019-04-23T14:04:26.965Z,6.33
2019-04-23T14:06:49.511Z,5.03
2019-04-23T14:09:31.154Z,6.28
2019-04-23T14:11:46.596Z,6.53
2019-04-23T14:14:41.786Z,6.42
2019-04-23T14:17:00.250Z,5.90
2019-04-23T14:19:26.161Z,5.80
2019-04-23T14:22:18.442Z,6.12
2019-04-23T14:24:38.896Z,6.12
2019-04-23T14:27:10.884Z,6.70
2019-04-23T14:29:43.614Z,6.03
2019-04-23T14:32:08.922Z,6.30
2019-04-23T14:34:38.430Z,7.17
2019-04-23T14:39:40.541Z,6.85
2019-04-23T14:42:20.718Z,6.65
2019-04-23T14:44:52.907Z,6.47
2019-04-23T14:47:24.007Z,6.85
2019-04-23T14:50:17.384Z,7.10
2019-04-23T14:52:30.950Z,5.92
2019-04-23T14:58:00.948Z,6.45
2019-04-23T15:02:38.261Z,6.20
2019-04-23T15:07:37.509Z,6.67
2019-04-23T15:10:18.463Z,5.97
2019-04-23T15:12:40.242Z,6.47
2019-04-23T15:17:40.209Z,6.50
2019-04-23T15:20:25.062Z,6.22
2019-04-23T15:23:14.380Z,6.12
2019-04-23T15:27:45.618Z,7.00
2019-04-23T15:30:17.577Z,7.12
2019-04-23T15:33:21.905Z,6.90
2019-04-23T15:35:59.781Z,6.83
2019-04-23T15:40:27.031Z,6.53
2019-04-23T15:43:10.317Z,6.60
2019-04-23T15:45:41.432Z,7.80
2019-04-23T15:50:40.117Z,7.20
2019-04-23T15:53:03.195Z,6.80
2019-04-23T15:55:44.422Z,6.60
2019-04-23T15:58:15.808Z,7.40
2019-04-23T16:00:39.839Z,7.22
2019-04-23T16:02:45.320Z,6.12
2019-04-23T16:05:15.860Z,6.65
2019-04-23T16:08:06.105Z,6.67
2019-04-23T16:10:54.551Z,7.22
2019-04-23T16:13:37.398Z,6.97
2019-04-23T16:15:51.605Z,6.58
2019-04-23T16:18:43.954Z,6.90
2019-04-23T16:21:04.958Z,6.78
2019-04-23T16:23:38.238Z,8.05
2019-04-23T16:26:08.751Z,7.10
2019-04-23T16:28:42.186Z,7.17
2019-04-23T16:31:15.238Z,7.33
2019-04-23T16:33:47.941Z,6.85
2019-04-23T16:36:19.663Z,6.97
2019-04-23T16:38:51.994Z,7.47
2019-04-23T16:54:01.793Z,7.42
2019-04-23T16:59:08.703Z,7.67
2019-04-23T17:01:26.387Z,7.62
2019-04-23T17:04:08.286Z,7.72
2019-04-23T17:06:30.925Z,7.62
2019-04-23T17:08:59.866Z,7.75
2019-04-23T17:11:33.943Z,6.78
2019-04-23T17:14:09.183Z,7.55
2019-04-23T17:19:11.555Z,8.63
2019-04-23T17:21:38.335Z,10.23
2019-04-23T17:27:05.454Z,7.95
2019-04-23T17:29:15.169Z,8.90
2019-04-23T17:31:45.529Z,7.10
2019-04-23T17:34:23.735Z,7.80
2019-04-23T17:37:07.158Z,7.20
2019-04-23T17:39:52.990Z,8.28
2019-04-23T17:42:48.330Z,7.60
2019-04-23T17:48:13.485Z,8.58
2019-04-23T17:51:02.462Z,8.80
2019-04-23T17:53:42.501Z,8.40
2019-04-23T17:58:46.443Z,8.07
2019-04-23T18:01:20.376Z,7.90
2019-04-23T18:06:32.155Z,8.18
2019-04-23T18:13:57.186Z,8.85
2019-04-23T18:16:35.123Z,9.03
2019-04-23T18:19:05.712Z,8.60
2019-04-23T18:22:00.169Z,8.25
2019-04-23T18:24:44.909Z,8.20
2019-04-23T18:30:11.799Z,8.93
2019-04-23T18:33:40.718Z,8.00
2019-04-23T18:35:44.089Z,9.23
2019-04-23T18:38:14.608Z,8.58
2019-04-23T18:40:54.627Z,8.35
2019-04-23T18:43:23.031Z,8.70
2019-04-23T18:45:45.397Z,8.73
2019-04-23T18:56:11.177Z,10.40
2019-04-23T18:58:52.007Z,9.48
2019-04-23T19:09:32.242Z,11.53
2019-04-23T19:12:26.857Z,12.20
2019-04-23T19:14:40.812Z,12.55
2019-04-23T19:17:42.181Z,12.82
2019-04-23T19:19:42.261Z,13.60
2019-04-23T19:24:38.975Z,14.13
2019-04-23T19:27:16.841Z,13.32
2019-04-23T19:29:47.928Z,12.37
2019-04-23T19:32:06.377Z,12.10
2019-04-23T19:37:15.483Z,11.45
2019-04-23T19:42:36.766Z,11.20
2019-04-23T19:44:47.573Z,10.43
2019-04-23T19:47:25.733Z,11.60
2019-04-23T19:50:04.766Z,10.83
2019-04-23T19:52:38.633Z,10.63
2019-04-23T19:55:04.896Z,10.53
2019-04-23T19:57:33.950Z,10.75
2019-04-23T20:00:11.238Z,11.23
2019-04-23T20:02:38.358Z,11.20
2019-04-23T20:05:17.404Z,11.57
2019-04-23T20:07:44.593Z,10.50
2019-04-23T20:09:57.021Z,11.10
2019-04-23T20:12:38.747Z,11.00
2019-04-23T20:15:13.513Z,11.38
2019-04-23T20:17:51.389Z,10.68
2019-04-23T20:20:04.439Z,11.25
2019-04-23T20:22:52.104Z,10.45
2019-04-23T20:25:44.176Z,10.88
2019-04-23T20:30:49.445Z,10.47
2019-04-23T20:31:44.985Z,10.23
2019-04-23T20:35:53.986Z,10.70
2019-04-23T20:38:33.320Z,10.55
2019-04-23T20:43:32.688Z,10.30
2019-04-23T20:45:58.970Z,11.00
2019-04-23T20:48:44.737Z,11.63
2019-04-23T20:50:58.903Z,11.03
2019-04-23T20:53:31.353Z,10.33
2019-04-23T20:56:10.048Z,9.53
2019-04-23T20:58:48.057Z,10.10
2019-04-23T21:03:52.017Z,10.18
2019-04-23T21:06:15.006Z,9.78
2019-04-23T21:09:13.318Z,10.18
2019-04-23T21:11:36.259Z,9.75
2019-04-23T21:14:12.470Z,8.80
2019-04-23T21:16:22.762Z,9.90
2019-04-23T21:18:55.006Z,10.10
2019-04-23T21:21:25.916Z,10.32
2019-04-23T21:26:31.269Z,9.75
2019-04-23T21:28:57.140Z,8.85
2019-04-23T21:36:48.203Z,8.60
2019-04-23T21:39:38.653Z,8.43
2019-04-23T21:42:17.818Z,7.50
2019-04-23T21:44:35.464Z,8.20
2019-04-23T21:47:30.683Z,7.95
2019-04-23T21:50:06.478Z,7.90
2019-04-23T21:52:16.439Z,7.53
2019-04-23T21:54:47.233Z,7.45
2019-04-23T21:57:10.357Z,7.62
2019-04-23T21:59:53.283Z,7.67
2019-04-23T22:02:23.639Z,7.25
2019-04-23T22:05:01.019Z,7.20
2019-04-23T22:07:21.497Z,6.70
2019-04-23T22:09:56.320Z,7.17
2019-04-23T22:14:53.780Z,7.12
2019-04-23T22:17:24.955Z,7.37
2019-04-23T22:20:07.527Z,6.97
2019-04-23T22:22:34.303Z,6.65
2019-04-23T22:24:57.520Z,6.17
2019-04-23T22:27:28.194Z,6.40
2019-04-23T22:30:01.266Z,6.85
2019-04-23T22:32:40.738Z,6.22
2019-04-23T22:35:07.341Z,6.53
2019-04-23T22:37:40.516Z,6.87
2019-04-23T22:47:39.470Z,6.22
2019-04-23T22:55:15.493Z,6.40
2019-04-23T23:03:06.413Z,6.50
2019-04-23T23:05:56.213Z,6.12
2019-04-23T23:08:13.392Z,6.00
2019-04-23T23:18:17.872Z,5.42
2019-04-23T23:20:52.644Z,5.90
2019-04-23T23:23:17.784Z,6.03
2019-04-23T23:25:55.406Z,6.17
2019-04-23T23:31:04.099Z,6.22
2019-04-23T23:33:26.938Z,6.00
2019-04-23T23:36:03.221Z,6.45
2019-04-23T23:38:34.759Z,5.83
2019-04-23T23:43:29.648Z,5.70
2019-04-23T23:46:17.276Z,5.47
2019-04-23T23:48:35.973Z,5.70
2019-04-23T23:51:09.875Z,4.95
2019-04-23T23:56:10.832Z,5.53
2019-04-23T23:58:55.267Z,5.77
